Impacts TAF Board INFO
FOR SITUATIONAL AWARENESS. NOT TO BE USED FOR FLIGHT PLANNING PURPOSES.
IDs:

KPHL - Philadelphia Intl, PA, US

Issued at 2320 UTC 16 Oct 2017
Updated at 0350 UTC 17 Oct 2017
Potential Impact None Slight Moderate High
Time0254Z 17/04Z 17/05Z 17/06Z 17/07Z 17/08Z 17/09Z 17/10Z 17/11Z 17/12Z 17/13Z 17/14Z 17/15Z 17/16Z>>
Type OBS PRVL PRVL PRVL PRVL PRVL PRVL PRVL PRVL PRVL PRVL PRVL PRVL PRVL
VIS 10 >6 >6 >6 >6 >6 >6 >6 >6 >6 >6 >6 >6 >6
CIG -- -- -- -- -- -- -- -- -- -- -- -- -- --
Cover CLR SKC SKC SKC SKC SKC SKC SKC SKC SKC SKC SKC SKC SKC
FltCat VFR VFR VFR VFR VFR VFR VFR VFR VFR VFR VFR VFR VFR VFR
WX -- -- -- -- -- -- -- -- -- -- -- -- -- --
WDir 360 350 350 350 350 350 350 350 350 350 350 350 350 350
WSpd 9 7 7 7 7 7 7 7 7 7 7 7 7 7
WGst -- -- -- -- -- -- -- -- -- -- -- -- -- --

Raw TAF
KPHL 162320Z 1700/1806 35007KT P6SM SKC
  FM171700 30006KT P6SM SKC
  FM172100 24005KT P6SM SKC


Raw METAR
KPHL 170254Z 36009KT 10SM CLR 11/01 A3024 RMK AO2 SLP238 T01060011 51027
KPHL 170154Z 36008KT 10SM CLR 11/01 A3021 RMK AO2 SLP229 T01110011
KPHL 170054Z 36007KT 10SM FEW280 12/02 A3018 RMK AO2 SLP219 T01170017

METAR Board
Radar Display
Forecast Discussion

FOR SITUATIONAL AWARENESS. NOT TO BE USED FOR FLIGHT PLANNING PURPOSES.